sensor_id;sensor_type;location;lat;lon;timestamp;P1;durP1;ratioP1;P2;durP2;ratioP2
6077;SDS011;3067;49.470;10.394;2022-12-17T00:02:11;19.90;;;11.80;;
6077;SDS011;3067;49.470;10.394;2022-12-17T00:05:07;20.03;;;10.97;;
6077;SDS011;3067;49.470;10.394;2022-12-17T00:07:55;22.70;;;12.10;;
6077;SDS011;3067;49.470;10.394;2022-12-17T00:10:42;21.87;;;12.67;;
6077;SDS011;3067;49.470;10.394;2022-12-17T00:13:26;23.43;;;10.97;;
6077;SDS011;3067;49.470;10.394;2022-12-17T00:16:11;18.60;;;12.10;;
6077;SDS011;3067;49.470;10.394;2022-12-17T00:18:56;18.60;;;11.57;;
6077;SDS011;3067;49.470;10.394;2022-12-17T00:21:41;21.57;;;11.93;;
6077;SDS011;3067;49.470;10.394;2022-12-17T00:24:26;19.57;;;11.17;;
6077;SDS011;3067;49.470;10.394;2022-12-17T00:27:12;20.00;;;11.90;;
6077;SDS011;3067;49.470;10.394;2022-12-17T00:29:57;21.93;;;11.77;;
6077;SDS011;3067;49.470;10.394;2022-12-17T00:32:41;19.93;;;11.87;;
6077;SDS011;3067;49.470;10.394;2022-12-17T00:35:26;23.60;;;11.50;;
6077;SDS011;3067;49.470;10.394;2022-12-17T00:38:13;22.40;;;12.43;;
6077;SDS011;3067;49.470;10.394;2022-12-17T00:40:58;19.20;;;11.30;;
6077;SDS011;3067;49.470;10.394;2022-12-17T00:43:40;19.03;;;11.00;;
6077;SDS011;3067;49.470;10.394;2022-12-17T00:46:25;31.03;;;11.27;;
6077;SDS011;3067;49.470;10.394;2022-12-17T00:49:10;22.03;;;11.93;;
6077;SDS011;3067;49.470;10.394;2022-12-17T00:51:55;22.40;;;12.20;;
6077;SDS011;3067;49.470;10.394;2022-12-17T00:54:40;19.13;;;11.00;;
6077;SDS011;3067;49.470;10.394;2022-12-17T00:57:27;18.77;;;10.93;;
6077;SDS011;3067;49.470;10.394;2022-12-17T01:00:14;20.73;;;12.10;;
6077;SDS011;3067;49.470;10.394;2022-12-17T01:03:05;19.30;;;11.60;;
6077;SDS011;3067;49.470;10.394;2022-12-17T01:05:50;22.17;;;11.90;;
6077;SDS011;3067;49.470;10.394;2022-12-17T01:08:35;22.43;;;11.83;;
6077;SDS011;3067;49.470;10.394;2022-12-17T01:11:20;18.53;;;11.43;;
6077;SDS011;3067;49.470;10.394;2022-12-17T01:14:05;23.53;;;11.40;;
6077;SDS011;3067;49.470;10.394;2022-12-17T01:16:51;20.10;;;11.17;;
6077;SDS011;3067;49.470;10.394;2022-12-17T01:19:36;21.27;;;11.30;;
6077;SDS011;3067;49.470;10.394;2022-12-17T01:22:21;18.37;;;11.57;;
6077;SDS011;3067;49.470;10.394;2022-12-17T01:25:06;17.90;;;10.77;;
6077;SDS011;3067;49.470;10.394;2022-12-17T01:28:05;20.90;;;11.80;;
6077;SDS011;3067;49.470;10.394;2022-12-17T01:30:50;33.93;;;11.17;;
6077;SDS011;3067;49.470;10.394;2022-12-17T01:33:36;20.07;;;11.67;;
6077;SDS011;3067;49.470;10.394;2022-12-17T01:36:21;16.83;;;10.73;;
6077;SDS011;3067;49.470;10.394;2022-12-17T01:39:06;18.87;;;10.80;;
6077;SDS011;3067;49.470;10.394;2022-12-17T01:41:50;18.27;;;11.10;;
6077;SDS011;3067;49.470;10.394;2022-12-17T01:44:46;18.00;;;10.87;;
6077;SDS011;3067;49.470;10.394;2022-12-17T01:47:33;19.00;;;11.30;;
6077;SDS011;3067;49.470;10.394;2022-12-17T01:50:20;16.73;;;10.50;;
6077;SDS011;3067;49.470;10.394;2022-12-17T01:53:07;20.17;;;11.60;;
6077;SDS011;3067;49.470;10.394;2022-12-17T01:55:52;16.90;;;11.17;;
6077;SDS011;3067;49.470;10.394;2022-12-17T01:58:38;18.97;;;10.40;;
6077;SDS011;3067;49.470;10.394;2022-12-17T02:01:23;16.07;;;10.50;;
6077;SDS011;3067;49.470;10.394;2022-12-17T02:04:08;17.23;;;11.13;;
6077;SDS011;3067;49.470;10.394;2022-12-17T02:07:00;16.00;;;10.07;;
6077;SDS011;3067;49.470;10.394;2022-12-17T02:09:49;17.80;;;11.00;;
6077;SDS011;3067;49.470;10.394;2022-12-17T02:12:33;16.10;;;9.33;;
6077;SDS011;3067;49.470;10.394;2022-12-17T02:15:21;13.17;;;9.43;;
6077;SDS011;3067;49.470;10.394;2022-12-17T02:18:07;17.17;;;9.70;;
6077;SDS011;3067;49.470;10.394;2022-12-17T02:20:54;14.00;;;9.43;;
6077;SDS011;3067;49.470;10.394;2022-12-17T02:23:43;15.00;;;9.67;;
6077;SDS011;3067;49.470;10.394;2022-12-17T02:26:34;18.20;;;10.00;;
6077;SDS011;3067;49.470;10.394;2022-12-17T02:29:19;14.00;;;9.23;;
6077;SDS011;3067;49.470;10.394;2022-12-17T02:32:05;18.80;;;9.47;;
6077;SDS011;3067;49.470;10.394;2022-12-17T02:34:51;12.10;;;8.43;;
6077;SDS011;3067;49.470;10.394;2022-12-17T02:37:36;15.40;;;9.50;;
6077;SDS011;3067;49.470;10.394;2022-12-17T02:40:21;14.37;;;8.93;;
6077;SDS011;3067;49.470;10.394;2022-12-17T02:43:08;16.93;;;9.63;;
6077;SDS011;3067;49.470;10.394;2022-12-17T02:45:54;12.47;;;9.00;;
6077;SDS011;3067;49.470;10.394;2022-12-17T02:48:39;12.23;;;8.80;;
6077;SDS011;3067;49.470;10.394;2022-12-17T02:51:24;16.13;;;9.57;;
6077;SDS011;3067;49.470;10.394;2022-12-17T02:54:09;12.50;;;9.03;;
6077;SDS011;3067;49.470;10.394;2022-12-17T02:56:54;14.83;;;9.60;;
6077;SDS011;3067;49.470;10.394;2022-12-17T02:59:41;15.07;;;8.90;;
6077;SDS011;3067;49.470;10.394;2022-12-17T03:02:40;12.57;;;8.90;;
6077;SDS011;3067;49.470;10.394;2022-12-17T03:05:25;18.27;;;10.13;;
6077;SDS011;3067;49.470;10.394;2022-12-17T03:08:10;15.20;;;9.70;;
6077;SDS011;3067;49.470;10.394;2022-12-17T03:10:55;13.37;;;8.63;;
6077;SDS011;3067;49.470;10.394;2022-12-17T03:13:40;13.40;;;9.10;;
6077;SDS011;3067;49.470;10.394;2022-12-17T03:16:26;14.83;;;9.60;;
6077;SDS011;3067;49.470;10.394;2022-12-17T03:19:11;15.80;;;9.93;;
6077;SDS011;3067;49.470;10.394;2022-12-17T03:21:56;17.17;;;9.30;;
6077;SDS011;3067;49.470;10.394;2022-12-17T03:24:41;24.10;;;10.00;;
6077;SDS011;3067;49.470;10.394;2022-12-17T03:27:26;16.10;;;9.67;;
6077;SDS011;3067;49.470;10.394;2022-12-17T03:30:11;16.53;;;9.73;;
6077;SDS011;3067;49.470;10.394;2022-12-17T03:32:57;14.20;;;9.50;;
6077;SDS011;3067;49.470;10.394;2022-12-17T03:35:42;14.40;;;8.90;;
6077;SDS011;3067;49.470;10.394;2022-12-17T03:38:27;13.57;;;8.77;;
6077;SDS011;3067;49.470;10.394;2022-12-17T03:41:11;13.37;;;8.90;;
6077;SDS011;3067;49.470;10.394;2022-12-17T03:43:55;12.27;;;8.43;;
6077;SDS011;3067;49.470;10.394;2022-12-17T03:46:40;10.87;;;7.73;;
6077;SDS011;3067;49.470;10.394;2022-12-17T03:49:26;10.60;;;7.80;;
6077;SDS011;3067;49.470;10.394;2022-12-17T03:52:11;11.60;;;8.20;;
6077;SDS011;3067;49.470;10.394;2022-12-17T03:54:56;13.33;;;8.00;;
6077;SDS011;3067;49.470;10.394;2022-12-17T03:57:46;10.70;;;7.93;;
6077;SDS011;3067;49.470;10.394;2022-12-17T04:00:31;9.90;;;7.80;;
6077;SDS011;3067;49.470;10.394;2022-12-17T04:03:16;15.17;;;8.53;;
6077;SDS011;3067;49.470;10.394;2022-12-17T04:06:02;15.83;;;8.90;;
6077;SDS011;3067;49.470;10.394;2022-12-17T04:08:47;19.43;;;8.87;;
6077;SDS011;3067;49.470;10.394;2022-12-17T04:11:32;14.77;;;8.77;;
6077;SDS011;3067;49.470;10.394;2022-12-17T04:14:17;14.57;;;8.90;;
6077;SDS011;3067;49.470;10.394;2022-12-17T04:17:01;11.97;;;8.00;;
6077;SDS011;3067;49.470;10.394;2022-12-17T04:19:46;14.47;;;8.40;;
6077;SDS011;3067;49.470;10.394;2022-12-17T04:22:32;12.00;;;7.93;;
6077;SDS011;3067;49.470;10.394;2022-12-17T04:25:17;11.73;;;7.90;;
6077;SDS011;3067;49.470;10.394;2022-12-17T04:28:02;12.00;;;7.70;;
6077;SDS011;3067;49.470;10.394;2022-12-17T04:30:47;11.10;;;8.00;;
6077;SDS011;3067;49.470;10.394;2022-12-17T04:33:32;13.87;;;7.80;;
6077;SDS011;3067;49.470;10.394;2022-12-17T04:36:17;12.93;;;8.20;;
6077;SDS011;3067;49.470;10.394;2022-12-17T04:39:04;11.90;;;7.70;;
6077;SDS011;3067;49.470;10.394;2022-12-17T04:41:49;14.40;;;7.50;;
6077;SDS011;3067;49.470;10.394;2022-12-17T04:44:34;10.30;;;7.80;;
6077;SDS011;3067;49.470;10.394;2022-12-17T04:47:19;12.03;;;7.87;;
6077;SDS011;3067;49.470;10.394;2022-12-17T04:50:04;12.40;;;8.37;;
6077;SDS011;3067;49.470;10.394;2022-12-17T04:52:49;9.73;;;7.03;;
6077;SDS011;3067;49.470;10.394;2022-12-17T04:55:35;13.97;;;8.33;;
6077;SDS011;3067;49.470;10.394;2022-12-17T04:58:20;10.30;;;7.17;;
6077;SDS011;3067;49.470;10.394;2022-12-17T05:01:20;11.83;;;7.90;;
6077;SDS011;3067;49.470;10.394;2022-12-17T05:04:04;12.73;;;7.90;;
6077;SDS011;3067;49.470;10.394;2022-12-17T05:06:52;10.17;;;7.83;;
6077;SDS011;3067;49.470;10.394;2022-12-17T05:09:36;14.60;;;9.47;;
6077;SDS011;3067;49.470;10.394;2022-12-17T05:12:23;13.93;;;9.20;;
6077;SDS011;3067;49.470;10.394;2022-12-17T05:15:08;12.87;;;8.50;;
6077;SDS011;3067;49.470;10.394;2022-12-17T05:17:53;15.23;;;9.57;;
6077;SDS011;3067;49.470;10.394;2022-12-17T05:20:38;16.00;;;9.00;;
6077;SDS011;3067;49.470;10.394;2022-12-17T05:23:23;22.50;;;11.23;;
6077;SDS011;3067;49.470;10.394;2022-12-17T05:26:10;24.93;;;12.10;;
6077;SDS011;3067;49.470;10.394;2022-12-17T05:28:58;18.33;;;11.10;;
6077;SDS011;3067;49.470;10.394;2022-12-17T05:31:43;19.23;;;10.20;;
6077;SDS011;3067;49.470;10.394;2022-12-17T05:34:28;14.83;;;9.97;;
6077;SDS011;3067;49.470;10.394;2022-12-17T05:37:13;15.33;;;9.53;;
6077;SDS011;3067;49.470;10.394;2022-12-17T05:39:58;12.67;;;8.77;;
6077;SDS011;3067;49.470;10.394;2022-12-17T05:42:52;11.43;;;7.93;;
6077;SDS011;3067;49.470;10.394;2022-12-17T05:45:39;20.40;;;8.67;;
6077;SDS011;3067;49.470;10.394;2022-12-17T05:48:23;10.97;;;7.60;;
6077;SDS011;3067;49.470;10.394;2022-12-17T05:51:08;12.63;;;7.60;;
6077;SDS011;3067;49.470;10.394;2022-12-17T05:53:53;12.57;;;8.23;;
6077;SDS011;3067;49.470;10.394;2022-12-17T05:56:38;12.30;;;7.50;;
6077;SDS011;3067;49.470;10.394;2022-12-17T05:59:19;12.00;;;7.77;;
6077;SDS011;3067;49.470;10.394;2022-12-17T06:02:06;11.40;;;7.80;;
6077;SDS011;3067;49.470;10.394;2022-12-17T06:04:50;10.10;;;7.10;;
6077;SDS011;3067;49.470;10.394;2022-12-17T06:07:35;12.87;;;7.60;;
6077;SDS011;3067;49.470;10.394;2022-12-17T06:10:20;13.17;;;7.37;;
6077;SDS011;3067;49.470;10.394;2022-12-17T06:13:05;11.20;;;7.10;;
6077;SDS011;3067;49.470;10.394;2022-12-17T06:15:50;9.70;;;6.40;;
6077;SDS011;3067;49.470;10.394;2022-12-17T06:18:36;22.33;;;8.20;;
6077;SDS011;3067;49.470;10.394;2022-12-17T06:21:21;10.07;;;7.90;;
6077;SDS011;3067;49.470;10.394;2022-12-17T06:24:06;14.83;;;8.40;;
6077;SDS011;3067;49.470;10.394;2022-12-17T06:26:51;10.67;;;7.83;;
6077;SDS011;3067;49.470;10.394;2022-12-17T06:29:37;13.03;;;8.10;;
6077;SDS011;3067;49.470;10.394;2022-12-17T06:32:22;11.10;;;7.43;;
6077;SDS011;3067;49.470;10.394;2022-12-17T06:35:08;12.63;;;8.50;;
6077;SDS011;3067;49.470;10.394;2022-12-17T06:37:56;17.50;;;8.30;;
6077;SDS011;3067;49.470;10.394;2022-12-17T06:40:46;12.67;;;8.30;;
6077;SDS011;3067;49.470;10.394;2022-12-17T06:43:31;12.97;;;8.03;;
6077;SDS011;3067;49.470;10.394;2022-12-17T06:46:16;11.83;;;8.40;;
6077;SDS011;3067;49.470;10.394;2022-12-17T06:49:01;12.10;;;8.70;;
6077;SDS011;3067;49.470;10.394;2022-12-17T06:51:47;13.80;;;8.93;;
6077;SDS011;3067;49.470;10.394;2022-12-17T06:54:32;15.00;;;8.57;;
6077;SDS011;3067;49.470;10.394;2022-12-17T06:57:17;13.33;;;8.83;;
6077;SDS011;3067;49.470;10.394;2022-12-17T07:00:02;13.37;;;9.30;;
6077;SDS011;3067;49.470;10.394;2022-12-17T07:02:47;13.20;;;9.83;;
6077;SDS011;3067;49.470;10.394;2022-12-17T07:05:32;22.07;;;11.30;;
6077;SDS011;3067;49.470;10.394;2022-12-17T07:08:18;17.77;;;11.20;;
6077;SDS011;3067;49.470;10.394;2022-12-17T07:11:03;20.13;;;9.80;;
6077;SDS011;3067;49.470;10.394;2022-12-17T07:13:44;15.37;;;9.60;;
6077;SDS011;3067;49.470;10.394;2022-12-17T07:16:29;15.20;;;9.50;;
6077;SDS011;3067;49.470;10.394;2022-12-17T07:19:14;15.80;;;9.30;;
6077;SDS011;3067;49.470;10.394;2022-12-17T07:21:59;14.17;;;9.47;;
6077;SDS011;3067;49.470;10.394;2022-12-17T07:24:45;14.63;;;9.60;;
6077;SDS011;3067;49.470;10.394;2022-12-17T07:27:30;18.57;;;10.13;;
6077;SDS011;3067;49.470;10.394;2022-12-17T07:30:15;14.70;;;9.90;;
6077;SDS011;3067;49.470;10.394;2022-12-17T07:33:01;17.80;;;9.60;;
6077;SDS011;3067;49.470;10.394;2022-12-17T07:35:46;18.67;;;10.10;;
6077;SDS011;3067;49.470;10.394;2022-12-17T07:38:30;20.63;;;9.87;;
6077;SDS011;3067;49.470;10.394;2022-12-17T07:41:16;15.90;;;9.70;;
6077;SDS011;3067;49.470;10.394;2022-12-17T07:44:01;20.10;;;10.90;;
6077;SDS011;3067;49.470;10.394;2022-12-17T07:46:46;14.70;;;9.77;;
6077;SDS011;3067;49.470;10.394;2022-12-17T07:49:31;17.97;;;10.13;;
6077;SDS011;3067;49.470;10.394;2022-12-17T07:52:17;19.53;;;10.40;;
6077;SDS011;3067;49.470;10.394;2022-12-17T07:55:01;15.00;;;10.27;;
6077;SDS011;3067;49.470;10.394;2022-12-17T07:57:48;16.00;;;10.10;;
6077;SDS011;3067;49.470;10.394;2022-12-17T08:00:40;18.43;;;10.07;;
6077;SDS011;3067;49.470;10.394;2022-12-17T08:03:26;23.47;;;9.97;;
6077;SDS011;3067;49.470;10.394;2022-12-17T08:06:10;16.27;;;9.90;;
6077;SDS011;3067;49.470;10.394;2022-12-17T08:08:55;17.87;;;9.90;;
6077;SDS011;3067;49.470;10.394;2022-12-17T08:11:40;19.00;;;10.97;;
6077;SDS011;3067;49.470;10.394;2022-12-17T08:14:26;20.17;;;11.70;;
6077;SDS011;3067;49.470;10.394;2022-12-17T08:17:11;20.43;;;12.10;;
6077;SDS011;3067;49.470;10.394;2022-12-17T08:19:56;19.87;;;11.77;;
6077;SDS011;3067;49.470;10.394;2022-12-17T08:22:41;21.40;;;11.90;;
6077;SDS011;3067;49.470;10.394;2022-12-17T08:25:26;24.37;;;12.43;;
6077;SDS011;3067;49.470;10.394;2022-12-17T08:28:11;23.67;;;13.47;;
6077;SDS011;3067;49.470;10.394;2022-12-17T08:30:58;54.30;;;22.97;;
6077;SDS011;3067;49.470;10.394;2022-12-17T08:33:43;46.70;;;19.43;;
6077;SDS011;3067;49.470;10.394;2022-12-17T08:36:29;26.50;;;14.10;;
6077;SDS011;3067;49.470;10.394;2022-12-17T08:39:14;25.67;;;12.80;;
6077;SDS011;3067;49.470;10.394;2022-12-17T08:41:59;19.33;;;11.83;;
6077;SDS011;3067;49.470;10.394;2022-12-17T08:44:43;21.10;;;12.80;;
6077;SDS011;3067;49.470;10.394;2022-12-17T08:47:30;23.77;;;11.73;;
6077;SDS011;3067;49.470;10.394;2022-12-17T08:50:15;24.27;;;11.43;;
6077;SDS011;3067;49.470;10.394;2022-12-17T08:53:01;22.13;;;13.30;;
6077;SDS011;3067;49.470;10.394;2022-12-17T08:55:46;23.60;;;12.87;;
6077;SDS011;3067;49.470;10.394;2022-12-17T08:58:31;23.17;;;12.70;;
6077;SDS011;3067;49.470;10.394;2022-12-17T09:04:22;24.50;;;13.57;;
6077;SDS011;3067;49.470;10.394;2022-12-17T09:07:06;25.60;;;12.90;;
6077;SDS011;3067;49.470;10.394;2022-12-17T09:09:51;19.37;;;12.80;;
6077;SDS011;3067;49.470;10.394;2022-12-17T09:12:36;23.10;;;12.10;;
6077;SDS011;3067;49.470;10.394;2022-12-17T09:15:21;20.43;;;12.90;;
6077;SDS011;3067;49.470;10.394;2022-12-17T09:18:06;23.00;;;12.00;;
6077;SDS011;3067;49.470;10.394;2022-12-17T09:20:53;20.40;;;12.70;;
6077;SDS011;3067;49.470;10.394;2022-12-17T09:23:38;21.37;;;12.53;;
6077;SDS011;3067;49.470;10.394;2022-12-17T09:26:23;23.80;;;12.63;;
6077;SDS011;3067;49.470;10.394;2022-12-17T09:29:08;24.37;;;11.90;;
6077;SDS011;3067;49.470;10.394;2022-12-17T09:34:41;25.20;;;13.53;;
6077;SDS011;3067;49.470;10.394;2022-12-17T09:37:28;22.20;;;12.37;;
6077;SDS011;3067;49.470;10.394;2022-12-17T09:40:14;27.80;;;14.00;;
6077;SDS011;3067;49.470;10.394;2022-12-17T09:43:00;22.90;;;13.70;;
6077;SDS011;3067;49.470;10.394;2022-12-17T09:45:48;20.70;;;12.43;;
6077;SDS011;3067;49.470;10.394;2022-12-17T09:48:38;25.10;;;14.67;;
6077;SDS011;3067;49.470;10.394;2022-12-17T09:51:24;24.07;;;13.77;;
6077;SDS011;3067;49.470;10.394;2022-12-17T09:54:13;26.03;;;13.83;;
6077;SDS011;3067;49.470;10.394;2022-12-17T09:56:59;23.10;;;13.27;;
6077;SDS011;3067;49.470;10.394;2022-12-17T09:59:44;23.10;;;14.00;;
6077;SDS011;3067;49.470;10.394;2022-12-17T10:02:29;26.00;;;14.40;;
6077;SDS011;3067;49.470;10.394;2022-12-17T10:05:15;25.13;;;13.50;;
6077;SDS011;3067;49.470;10.394;2022-12-17T10:08:03;24.10;;;14.93;;
6077;SDS011;3067;49.470;10.394;2022-12-17T10:10:50;27.97;;;15.80;;
6077;SDS011;3067;49.470;10.394;2022-12-17T10:13:35;27.30;;;15.20;;
6077;SDS011;3067;49.470;10.394;2022-12-17T10:16:23;26.87;;;14.80;;
6077;SDS011;3067;49.470;10.394;2022-12-17T10:19:10;26.60;;;15.20;;
6077;SDS011;3067;49.470;10.394;2022-12-17T10:22:04;33.30;;;17.33;;
6077;SDS011;3067;49.470;10.394;2022-12-17T10:24:49;30.50;;;17.30;;
6077;SDS011;3067;49.470;10.394;2022-12-17T10:27:35;36.83;;;19.17;;
6077;SDS011;3067;49.470;10.394;2022-12-17T10:30:21;40.97;;;18.67;;
6077;SDS011;3067;49.470;10.394;2022-12-17T10:33:18;29.23;;;16.40;;
6077;SDS011;3067;49.470;10.394;2022-12-17T10:36:03;30.50;;;17.30;;
6077;SDS011;3067;49.470;10.394;2022-12-17T10:38:52;32.90;;;19.03;;
6077;SDS011;3067;49.470;10.394;2022-12-17T10:41:39;28.07;;;17.20;;
6077;SDS011;3067;49.470;10.394;2022-12-17T10:44:26;32.90;;;18.20;;
6077;SDS011;3067;49.470;10.394;2022-12-17T10:47:11;36.33;;;19.43;;
6077;SDS011;3067;49.470;10.394;2022-12-17T10:49:57;38.50;;;19.37;;
6077;SDS011;3067;49.470;10.394;2022-12-17T10:52:42;34.03;;;19.17;;
6077;SDS011;3067;49.470;10.394;2022-12-17T10:55:28;40.47;;;18.70;;
6077;SDS011;3067;49.470;10.394;2022-12-17T10:58:14;34.33;;;18.70;;
6077;SDS011;3067;49.470;10.394;2022-12-17T11:01:01;32.83;;;18.13;;
6077;SDS011;3067;49.470;10.394;2022-12-17T11:03:47;42.63;;;19.70;;
6077;SDS011;3067;49.470;10.394;2022-12-17T11:06:33;29.37;;;17.13;;
6077;SDS011;3067;49.470;10.394;2022-12-17T11:09:22;27.03;;;14.80;;
6077;SDS011;3067;49.470;10.394;2022-12-17T11:12:11;32.47;;;14.87;;
6077;SDS011;3067;49.470;10.394;2022-12-17T11:14:59;26.83;;;15.70;;
6077;SDS011;3067;49.470;10.394;2022-12-17T11:17:47;27.40;;;14.63;;
6077;SDS011;3067;49.470;10.394;2022-12-17T11:20:35;27.00;;;15.00;;
6077;SDS011;3067;49.470;10.394;2022-12-17T11:23:24;28.43;;;16.20;;
6077;SDS011;3067;49.470;10.394;2022-12-17T11:26:09;27.17;;;14.87;;
6077;SDS011;3067;49.470;10.394;2022-12-17T11:28:57;30.97;;;15.27;;
6077;SDS011;3067;49.470;10.394;2022-12-17T11:31:44;27.87;;;15.50;;
6077;SDS011;3067;49.470;10.394;2022-12-17T11:34:47;25.80;;;15.70;;
6077;SDS011;3067;49.470;10.394;2022-12-17T11:37:36;27.07;;;15.43;;
6077;SDS011;3067;49.470;10.394;2022-12-17T11:40:24;29.87;;;15.20;;
6077;SDS011;3067;49.470;10.394;2022-12-17T11:43:14;29.93;;;15.93;;
6077;SDS011;3067;49.470;10.394;2022-12-17T11:46:04;34.80;;;14.90;;
6077;SDS011;3067;49.470;10.394;2022-12-17T11:48:52;24.60;;;11.60;;
6077;SDS011;3067;49.470;10.394;2022-12-17T11:51:43;27.70;;;13.73;;
6077;SDS011;3067;49.470;10.394;2022-12-17T11:54:32;27.70;;;13.23;;
6077;SDS011;3067;49.470;10.394;2022-12-17T11:57:22;23.70;;;12.17;;
6077;SDS011;3067;49.470;10.394;2022-12-17T12:00:12;24.23;;;11.90;;
6077;SDS011;3067;49.470;10.394;2022-12-17T12:03:00;19.97;;;10.57;;
6077;SDS011;3067;49.470;10.394;2022-12-17T12:05:48;28.53;;;12.30;;
6077;SDS011;3067;49.470;10.394;2022-12-17T12:08:38;23.83;;;11.37;;
6077;SDS011;3067;49.470;10.394;2022-12-17T12:11:25;20.33;;;12.10;;
6077;SDS011;3067;49.470;10.394;2022-12-17T12:14:10;23.60;;;11.33;;
6077;SDS011;3067;49.470;10.394;2022-12-17T12:16:59;22.27;;;11.07;;
6077;SDS011;3067;49.470;10.394;2022-12-17T12:19:48;24.80;;;11.13;;
6077;SDS011;3067;49.470;10.394;2022-12-17T12:22:37;20.83;;;9.90;;
6077;SDS011;3067;49.470;10.394;2022-12-17T12:25:29;29.13;;;12.90;;
6077;SDS011;3067;49.470;10.394;2022-12-17T12:28:18;24.77;;;12.03;;
6077;SDS011;3067;49.470;10.394;2022-12-17T12:31:07;23.40;;;12.67;;
6077;SDS011;3067;49.470;10.394;2022-12-17T12:33:56;24.23;;;12.70;;
6077;SDS011;3067;49.470;10.394;2022-12-17T12:36:42;25.83;;;13.47;;
6077;SDS011;3067;49.470;10.394;2022-12-17T12:39:30;27.67;;;12.57;;
6077;SDS011;3067;49.470;10.394;2022-12-17T12:42:19;24.60;;;13.00;;
6077;SDS011;3067;49.470;10.394;2022-12-17T12:45:24;27.20;;;13.10;;
6077;SDS011;3067;49.470;10.394;2022-12-17T12:48:13;25.60;;;13.70;;
6077;SDS011;3067;49.470;10.394;2022-12-17T12:51:02;24.63;;;12.13;;
6077;SDS011;3067;49.470;10.394;2022-12-17T12:53:55;22.80;;;11.70;;
6077;SDS011;3067;49.470;10.394;2022-12-17T12:56:40;24.70;;;12.43;;
6077;SDS011;3067;49.470;10.394;2022-12-17T12:59:27;22.00;;;11.50;;
6077;SDS011;3067;49.470;10.394;2022-12-17T13:02:23;19.63;;;10.37;;
6077;SDS011;3067;49.470;10.394;2022-12-17T13:05:26;23.23;;;12.20;;
6077;SDS011;3067;49.470;10.394;2022-12-17T13:08:03;27.57;;;13.00;;
6077;SDS011;3067;49.470;10.394;2022-12-17T13:10:30;26.17;;;12.43;;
6077;SDS011;3067;49.470;10.394;2022-12-17T13:12:59;23.47;;;13.00;;
6077;SDS011;3067;49.470;10.394;2022-12-17T13:15:36;28.13;;;13.90;;
6077;SDS011;3067;49.470;10.394;2022-12-17T13:18:14;27.27;;;14.90;;
6077;SDS011;3067;49.470;10.394;2022-12-17T13:20:42;33.10;;;15.70;;
6077;SDS011;3067;49.470;10.394;2022-12-17T13:23:14;27.27;;;16.53;;
6077;SDS011;3067;49.470;10.394;2022-12-17T13:25:42;28.57;;;17.20;;
6077;SDS011;3067;49.470;10.394;2022-12-17T13:31:03;30.30;;;19.60;;
6077;SDS011;3067;49.470;10.394;2022-12-17T13:33:32;32.37;;;19.50;;
6077;SDS011;3067;49.470;10.394;2022-12-17T13:36:03;29.00;;;17.60;;
6077;SDS011;3067;49.470;10.394;2022-12-17T13:38:35;26.20;;;17.23;;
6077;SDS011;3067;49.470;10.394;2022-12-17T13:41:08;29.73;;;18.20;;
6077;SDS011;3067;49.470;10.394;2022-12-17T13:43:42;32.03;;;17.17;;
6077;SDS011;3067;49.470;10.394;2022-12-17T13:46:21;25.23;;;14.90;;
6077;SDS011;3067;49.470;10.394;2022-12-17T13:48:53;30.33;;;15.80;;
6077;SDS011;3067;49.470;10.394;2022-12-17T13:51:21;28.70;;;15.50;;
6077;SDS011;3067;49.470;10.394;2022-12-17T13:53:51;35.33;;;16.60;;
6077;SDS011;3067;49.470;10.394;2022-12-17T13:56:23;35.73;;;16.73;;
6077;SDS011;3067;49.470;10.394;2022-12-17T13:58:51;49.27;;;16.07;;
6077;SDS011;3067;49.470;10.394;2022-12-17T14:01:18;35.23;;;17.40;;
6077;SDS011;3067;49.470;10.394;2022-12-17T14:03:51;31.33;;;16.13;;
6077;SDS011;3067;49.470;10.394;2022-12-17T14:06:18;33.33;;;15.30;;
6077;SDS011;3067;49.470;10.394;2022-12-17T14:08:46;28.57;;;14.30;;
6077;SDS011;3067;49.470;10.394;2022-12-17T14:11:14;30.03;;;14.80;;
6077;SDS011;3067;49.470;10.394;2022-12-17T14:13:59;24.50;;;13.03;;
6077;SDS011;3067;49.470;10.394;2022-12-17T14:16:28;25.90;;;13.70;;
6077;SDS011;3067;49.470;10.394;2022-12-17T14:18:57;31.37;;;13.07;;
6077;SDS011;3067;49.470;10.394;2022-12-17T14:21:25;25.37;;;13.07;;
6077;SDS011;3067;49.470;10.394;2022-12-17T14:23:52;28.20;;;14.40;;
6077;SDS011;3067;49.470;10.394;2022-12-17T14:26:20;22.90;;;12.70;;
6077;SDS011;3067;49.470;10.394;2022-12-17T14:28:48;26.50;;;13.43;;
6077;SDS011;3067;49.470;10.394;2022-12-17T14:31:17;27.90;;;13.40;;
6077;SDS011;3067;49.470;10.394;2022-12-17T14:33:44;26.00;;;13.70;;
6077;SDS011;3067;49.470;10.394;2022-12-17T14:36:17;27.20;;;12.73;;
6077;SDS011;3067;49.470;10.394;2022-12-17T14:38:49;22.33;;;11.27;;
6077;SDS011;3067;49.470;10.394;2022-12-17T14:41:17;22.90;;;11.40;;
6077;SDS011;3067;49.470;10.394;2022-12-17T14:44:03;21.80;;;12.27;;
6077;SDS011;3067;49.470;10.394;2022-12-17T14:46:31;23.43;;;12.10;;
6077;SDS011;3067;49.470;10.394;2022-12-17T14:48:59;26.10;;;11.60;;
6077;SDS011;3067;49.470;10.394;2022-12-17T14:51:29;21.50;;;10.40;;
6077;SDS011;3067;49.470;10.394;2022-12-17T14:54:04;21.80;;;11.43;;
6077;SDS011;3067;49.470;10.394;2022-12-17T14:56:31;31.90;;;11.40;;
6077;SDS011;3067;49.470;10.394;2022-12-17T14:58:58;24.43;;;12.17;;
6077;SDS011;3067;49.470;10.394;2022-12-17T15:01:26;29.77;;;13.00;;
6077;SDS011;3067;49.470;10.394;2022-12-17T15:03:53;30.33;;;14.80;;
6077;SDS011;3067;49.470;10.394;2022-12-17T15:06:23;25.77;;;13.67;;
6077;SDS011;3067;49.470;10.394;2022-12-17T15:08:53;35.97;;;13.73;;
6077;SDS011;3067;49.470;10.394;2022-12-17T15:11:21;28.70;;;14.13;;
6077;SDS011;3067;49.470;10.394;2022-12-17T15:13:48;24.60;;;13.93;;
6077;SDS011;3067;49.470;10.394;2022-12-17T15:16:16;30.77;;;14.50;;
6077;SDS011;3067;49.470;10.394;2022-12-17T15:18:43;28.30;;;15.07;;
6077;SDS011;3067;49.470;10.394;2022-12-17T15:21:11;28.37;;;15.10;;
6077;SDS011;3067;49.470;10.394;2022-12-17T15:23:40;31.57;;;15.20;;
6077;SDS011;3067;49.470;10.394;2022-12-17T15:26:10;27.47;;;15.00;;
6077;SDS011;3067;49.470;10.394;2022-12-17T15:28:38;24.60;;;14.43;;
6077;SDS011;3067;49.470;10.394;2022-12-17T15:31:05;27.37;;;14.47;;
6077;SDS011;3067;49.470;10.394;2022-12-17T15:33:32;29.00;;;14.90;;
6077;SDS011;3067;49.470;10.394;2022-12-17T15:36:00;27.98;;;14.13;;
6077;SDS011;3067;49.470;10.394;2022-12-17T15:38:27;27.50;;;13.80;;
6077;SDS011;3067;49.470;10.394;2022-12-17T15:40:54;25.93;;;12.00;;
6077;SDS011;3067;49.470;10.394;2022-12-17T15:43:23;22.00;;;11.10;;
6077;SDS011;3067;49.470;10.394;2022-12-17T15:45:49;54.77;;;14.23;;
6077;SDS011;3067;49.470;10.394;2022-12-17T15:48:18;26.67;;;12.90;;
6077;SDS011;3067;49.470;10.394;2022-12-17T15:50:45;24.27;;;12.90;;
6077;SDS011;3067;49.470;10.394;2022-12-17T15:53:13;27.67;;;13.00;;
6077;SDS011;3067;49.470;10.394;2022-12-17T15:55:41;34.00;;;13.90;;
6077;SDS011;3067;49.470;10.394;2022-12-17T15:58:08;28.63;;;14.33;;
6077;SDS011;3067;49.470;10.394;2022-12-17T16:00:38;26.97;;;13.73;;
6077;SDS011;3067;49.470;10.394;2022-12-17T16:03:05;19.73;;;12.20;;
6077;SDS011;3067;49.470;10.394;2022-12-17T16:05:32;26.43;;;12.33;;
6077;SDS011;3067;49.470;10.394;2022-12-17T16:07:59;25.03;;;12.87;;
6077;SDS011;3067;49.470;10.394;2022-12-17T16:10:27;24.57;;;13.10;;
6077;SDS011;3067;49.470;10.394;2022-12-17T16:12:55;24.50;;;13.60;;
6077;SDS011;3067;49.470;10.394;2022-12-17T16:15:22;22.63;;;12.30;;
6077;SDS011;3067;49.470;10.394;2022-12-17T16:17:51;29.23;;;13.80;;
6077;SDS011;3067;49.470;10.394;2022-12-17T16:20:18;22.10;;;12.33;;